sensor_id;sensor_type;location;lat;lon;timestamp;temperature;humidity
18268;DHT22;9260;49.998;19.880;2023-11-21T00:05:55;6.20;1.00
18268;DHT22;9260;49.998;19.880;2023-11-21T00:16:00;6.10;1.00
18268;DHT22;9260;49.998;19.880;2023-11-21T00:26:04;6.30;1.00
18268;DHT22;9260;49.998;19.880;2023-11-21T00:36:10;6.30;1.00
18268;DHT22;9260;49.998;19.880;2023-11-21T00:46:14;6.30;1.00
18268;DHT22;9260;49.998;19.880;2023-11-21T00:56:19;6.30;1.00
18268;DHT22;9260;49.998;19.880;2023-11-21T01:06:23;6.40;1.00
18268;DHT22;9260;49.998;19.880;2023-11-21T01:16:28;6.10;1.00
18268;DHT22;9260;49.998;19.880;2023-11-21T01:26:35;6.10;1.00
18268;DHT22;9260;49.998;19.880;2023-11-21T01:36:40;6.10;1.00
18268;DHT22;9260;49.998;19.880;2023-11-21T01:46:44;6.30;1.00
18268;DHT22;9260;49.998;19.880;2023-11-21T01:56:50;6.20;1.00
18268;DHT22;9260;49.998;19.880;2023-11-21T02:06:53;6.30;1.00
18268;DHT22;9260;49.998;19.880;2023-11-21T02:17:02;6.20;1.00
18268;DHT22;9260;49.998;19.880;2023-11-21T02:27:07;6.10;1.00
18268;DHT22;9260;49.998;19.880;2023-11-21T02:37:11;6.30;1.00
18268;DHT22;9260;49.998;19.880;2023-11-21T02:47:16;6.20;1.00
18268;DHT22;9260;49.998;19.880;2023-11-21T02:57:20;6.10;1.00
18268;DHT22;9260;49.998;19.880;2023-11-21T03:07:25;5.90;1.00
18268;DHT22;9260;49.998;19.880;2023-11-21T03:17:28;6.50;1.00
18268;DHT22;9260;49.998;19.880;2023-11-21T03:27:34;6.10;1.00
18268;DHT22;9260;49.998;19.880;2023-11-21T03:37:37;6.00;1.00
18268;DHT22;9260;49.998;19.880;2023-11-21T03:47:45;5.90;1.00
18268;DHT22;9260;49.998;19.880;2023-11-21T04:07:55;5.70;1.00
18268;DHT22;9260;49.998;19.880;2023-11-21T04:17:59;6.00;1.00
18268;DHT22;9260;49.998;19.880;2023-11-21T04:28:04;5.80;1.00
18268;DHT22;9260;49.998;19.880;2023-11-21T04:38:07;5.80;1.00
18268;DHT22;9260;49.998;19.880;2023-11-21T04:58:17;5.70;1.00
18268;DHT22;9260;49.998;19.880;2023-11-21T05:08:22;5.60;1.00
18268;DHT22;9260;49.998;19.880;2023-11-21T05:18:26;5.60;1.00
18268;DHT22;9260;49.998;19.880;2023-11-21T05:28:33;5.80;1.00
18268;DHT22;9260;49.998;19.880;2023-11-21T05:38:36;5.80;1.00
18268;DHT22;9260;49.998;19.880;2023-11-21T05:48:41;5.70;1.00
18268;DHT22;9260;49.998;19.880;2023-11-21T05:58:45;5.70;1.00
18268;DHT22;9260;49.998;19.880;2023-11-21T06:08:50;5.70;1.00
18268;DHT22;9260;49.998;19.880;2023-11-21T06:18:54;6.10;1.00
18268;DHT22;9260;49.998;19.880;2023-11-21T06:28:59;5.70;1.00
18268;DHT22;9260;49.998;19.880;2023-11-21T06:39:04;5.80;1.00
18268;DHT22;9260;49.998;19.880;2023-11-21T06:49:12;5.90;1.00
18268;DHT22;9260;49.998;19.880;2023-11-21T06:59:15;6.10;1.00
18268;DHT22;9260;49.998;19.880;2023-11-21T07:09:20;5.90;1.00
18268;DHT22;9260;49.998;19.880;2023-11-21T07:19:24;5.90;1.00
18268;DHT22;9260;49.998;19.880;2023-11-21T07:29:29;6.20;1.00
18268;DHT22;9260;49.998;19.880;2023-11-21T07:59:44;6.10;1.00
18268;DHT22;9260;49.998;19.880;2023-11-21T08:09:49;6.30;1.00
18268;DHT22;9260;49.998;19.880;2023-11-21T08:19:53;6.30;1.00
18268;DHT22;9260;49.998;19.880;2023-11-21T08:29:58;6.50;1.00
18268;DHT22;9260;49.998;19.880;2023-11-21T08:40:02;6.70;1.00
18268;DHT22;9260;49.998;19.880;2023-11-21T08:50:11;6.90;1.00
18268;DHT22;9260;49.998;19.880;2023-11-21T09:00:15;7.10;1.00
18268;DHT22;9260;49.998;19.880;2023-11-21T09:10:20;7.50;1.00
18268;DHT22;9260;49.998;19.880;2023-11-21T09:20:25;7.40;1.00
18268;DHT22;9260;49.998;19.880;2023-11-21T09:30:30;7.70;1.00
18268;DHT22;9260;49.998;19.880;2023-11-21T09:40:34;7.40;1.00
18268;DHT22;9260;49.998;19.880;2023-11-21T09:50:40;7.30;1.00
18268;DHT22;9260;49.998;19.880;2023-11-21T10:00:45;8.10;1.00
18268;DHT22;9260;49.998;19.880;2023-11-21T10:10:51;7.80;1.00
18268;DHT22;9260;49.998;19.880;2023-11-21T10:20:56;7.80;1.00
18268;DHT22;9260;49.998;19.880;2023-11-21T10:31:01;8.00;1.00
18268;DHT22;9260;49.998;19.880;2023-11-21T10:41:05;8.20;1.00
18268;DHT22;9260;49.998;19.880;2023-11-21T10:51:14;9.00;1.00
18268;DHT22;9260;49.998;19.880;2023-11-21T11:01:21;7.60;1.00
18268;DHT22;9260;49.998;19.880;2023-11-21T11:11:26;8.70;1.00
18268;DHT22;9260;49.998;19.880;2023-11-21T11:21:32;7.80;1.00
18268;DHT22;9260;49.998;19.880;2023-11-21T11:31:49;8.10;1.00
18268;DHT22;9260;49.998;19.880;2023-11-21T11:42:01;8.40;1.00
18268;DHT22;9260;49.998;19.880;2023-11-21T12:02:40;9.00;1.00
18268;DHT22;9260;49.998;19.880;2023-11-21T12:12:48;9.80;1.00
18268;DHT22;9260;49.998;19.880;2023-11-21T12:22:54;9.50;1.00
18268;DHT22;9260;49.998;19.880;2023-11-21T12:33:02;10.10;1.00
18268;DHT22;9260;49.998;19.880;2023-11-21T12:43:08;9.90;1.00
18268;DHT22;9260;49.998;19.880;2023-11-21T12:53:13;8.10;1.00
18268;DHT22;9260;49.998;19.880;2023-11-21T13:03:18;7.80;1.00
18268;DHT22;9260;49.998;19.880;2023-11-21T13:13:29;7.80;1.00
18268;DHT22;9260;49.998;19.880;2023-11-21T13:23:34;9.10;1.00
18268;DHT22;9260;49.998;19.880;2023-11-21T13:33:41;13.30;1.00
18268;DHT22;9260;49.998;19.880;2023-11-21T13:43:51;13.70;1.00
18268;DHT22;9260;49.998;19.880;2023-11-21T13:54:03;8.40;1.00
18268;DHT22;9260;49.998;19.880;2023-11-21T14:04:13;8.10;1.00
18268;DHT22;9260;49.998;19.880;2023-11-21T14:14:23;7.10;1.00
18268;DHT22;9260;49.998;19.880;2023-11-21T14:24:28;6.90;1.00
18268;DHT22;9260;49.998;19.880;2023-11-21T14:34:35;6.40;1.00
18268;DHT22;9260;49.998;19.880;2023-11-21T14:44:40;6.20;1.00
18268;DHT22;9260;49.998;19.880;2023-11-21T14:54:46;6.10;1.00
18268;DHT22;9260;49.998;19.880;2023-11-21T15:04:58;5.90;1.00
18268;DHT22;9260;49.998;19.880;2023-11-21T15:15:06;6.00;1.00
18268;DHT22;9260;49.998;19.880;2023-11-21T15:25:12;5.80;1.00
18268;DHT22;9260;49.998;19.880;2023-11-21T15:35:17;5.70;1.00
18268;DHT22;9260;49.998;19.880;2023-11-21T15:45:20;5.60;1.00
18268;DHT22;9260;49.998;19.880;2023-11-21T15:55:28;5.80;1.00
18268;DHT22;9260;49.998;19.880;2023-11-21T16:05:31;5.70;1.00
18268;DHT22;9260;49.998;19.880;2023-11-21T16:15:36;5.90;1.00
18268;DHT22;9260;49.998;19.880;2023-11-21T16:25:40;5.70;1.00
18268;DHT22;9260;49.998;19.880;2023-11-21T16:35:45;5.70;1.00
18268;DHT22;9260;49.998;19.880;2023-11-21T16:45:49;5.80;1.00
18268;DHT22;9260;49.998;19.880;2023-11-21T16:55:55;5.60;1.00
18268;DHT22;9260;49.998;19.880;2023-11-21T17:05:58;5.80;1.00
18268;DHT22;9260;49.998;19.880;2023-11-21T17:16:03;5.70;1.00
18268;DHT22;9260;49.998;19.880;2023-11-21T17:26:07;5.70;1.00
18268;DHT22;9260;49.998;19.880;2023-11-21T17:36:12;5.60;1.00
18268;DHT22;9260;49.998;19.880;2023-11-21T17:46:20;5.50;1.00
18268;DHT22;9260;49.998;19.880;2023-11-21T17:56:26;5.50;1.00
18268;DHT22;9260;49.998;19.880;2023-11-21T18:06:29;5.50;1.00
18268;DHT22;9260;49.998;19.880;2023-11-21T18:16:34;5.20;1.00
18268;DHT22;9260;49.998;19.880;2023-11-21T18:26:39;5.30;1.00
18268;DHT22;9260;49.998;19.880;2023-11-21T18:36:44;4.90;1.00
18268;DHT22;9260;49.998;19.880;2023-11-21T18:46:47;4.60;1.00
18268;DHT22;9260;49.998;19.880;2023-11-21T18:56:53;4.20;1.00
18268;DHT22;9260;49.998;19.880;2023-11-21T19:06:56;3.70;1.00
18268;DHT22;9260;49.998;19.880;2023-11-21T19:17:04;3.50;1.00
18268;DHT22;9260;49.998;19.880;2023-11-21T19:27:10;3.40;1.00
18268;DHT22;9260;49.998;19.880;2023-11-21T19:37:15;3.40;1.00
18268;DHT22;9260;49.998;19.880;2023-11-21T19:47:19;2.80;1.00
18268;DHT22;9260;49.998;19.880;2023-11-21T19:57:24;2.90;1.00
18268;DHT22;9260;49.998;19.880;2023-11-21T20:07:27;2.50;1.00
18268;DHT22;9260;49.998;19.880;2023-11-21T20:17:35;2.40;1.00
18268;DHT22;9260;49.998;19.880;2023-11-21T20:27:39;2.40;1.00
18268;DHT22;9260;49.998;19.880;2023-11-21T20:37:44;2.20;1.00
18268;DHT22;9260;49.998;19.880;2023-11-21T20:47:48;2.10;1.00
18268;DHT22;9260;49.998;19.880;2023-11-21T20:57:54;2.10;1.00
18268;DHT22;9260;49.998;19.880;2023-11-21T21:08:01;2.00;1.00
18268;DHT22;9260;49.998;19.880;2023-11-21T21:18:06;2.00;1.00
18268;DHT22;9260;49.998;19.880;2023-11-21T21:28:10;1.90;1.00
18268;DHT22;9260;49.998;19.880;2023-11-21T22:28:40;1.10;1.00
18268;DHT22;9260;49.998;19.880;2023-11-21T23:08:59;0.60;1.00
